sensor_id;sensor_type;location;lat;lon;timestamp;temperature;humidity
23633;DHT22;11993;48.748;9.166;2022-09-17T00:00:03;11.00;77.80
23633;DHT22;11993;48.748;9.166;2022-09-17T00:02:29;11.00;78.20
23633;DHT22;11993;48.748;9.166;2022-09-17T00:04:55;11.00;77.80
23633;DHT22;11993;48.748;9.166;2022-09-17T00:07:20;11.10;78.00
23633;DHT22;11993;48.748;9.166;2022-09-17T00:09:46;11.10;78.10
23633;DHT22;11993;48.748;9.166;2022-09-17T00:12:11;11.10;78.00
23633;DHT22;11993;48.748;9.166;2022-09-17T00:14:37;11.10;77.70
23633;DHT22;11993;48.748;9.166;2022-09-17T00:17:02;11.10;77.60
23633;DHT22;11993;48.748;9.166;2022-09-17T00:19:28;11.10;77.60
23633;DHT22;11993;48.748;9.166;2022-09-17T00:21:53;11.10;77.70
23633;DHT22;11993;48.748;9.166;2022-09-17T00:24:19;11.10;78.00
23633;DHT22;11993;48.748;9.166;2022-09-17T00:26:46;11.10;78.10
23633;DHT22;11993;48.748;9.166;2022-09-17T00:29:12;11.10;77.80
23633;DHT22;11993;48.748;9.166;2022-09-17T00:31:38;11.10;77.90
23633;DHT22;11993;48.748;9.166;2022-09-17T00:34:04;11.10;77.30
23633;DHT22;11993;48.748;9.166;2022-09-17T00:36:31;11.10;77.40
23633;DHT22;11993;48.748;9.166;2022-09-17T00:38:59;11.00;77.30
23633;DHT22;11993;48.748;9.166;2022-09-17T00:41:28;11.10;77.40
23633;DHT22;11993;48.748;9.166;2022-09-17T00:43:59;11.10;77.20
23633;DHT22;11993;48.748;9.166;2022-09-17T00:48:59;11.10;77.10
23633;DHT22;11993;48.748;9.166;2022-09-17T00:51:38;10.90;77.20
23633;DHT22;11993;48.748;9.166;2022-09-17T00:54:06;10.90;77.40
23633;DHT22;11993;48.748;9.166;2022-09-17T00:56:35;10.80;77.70
23633;DHT22;11993;48.748;9.166;2022-09-17T00:59:01;10.80;77.90
23633;DHT22;11993;48.748;9.166;2022-09-17T01:01:28;10.80;77.90
23633;DHT22;11993;48.748;9.166;2022-09-17T01:03:54;10.80;77.90
23633;DHT22;11993;48.748;9.166;2022-09-17T01:06:33;10.80;78.10
23633;DHT22;11993;48.748;9.166;2022-09-17T01:26:27;10.50;78.60
23633;DHT22;11993;48.748;9.166;2022-09-17T01:31:32;10.60;79.20
23633;DHT22;11993;48.748;9.166;2022-09-17T01:39:30;10.60;78.30
23633;DHT22;11993;48.748;9.166;2022-09-17T01:44:58;10.60;78.10
23633;DHT22;11993;48.748;9.166;2022-09-17T01:47:29;10.70;77.90
23633;DHT22;11993;48.748;9.166;2022-09-17T01:50:39;10.80;78.30
23633;DHT22;11993;48.748;9.166;2022-09-17T01:53:06;10.80;77.80
23633;DHT22;11993;48.748;9.166;2022-09-17T01:55:36;10.80;78.00
23633;DHT22;11993;48.748;9.166;2022-09-17T01:58:14;10.80;77.70
23633;DHT22;11993;48.748;9.166;2022-09-17T02:00:49;10.70;77.80
23633;DHT22;11993;48.748;9.166;2022-09-17T02:03:23;10.70;78.00
23633;DHT22;11993;48.748;9.166;2022-09-17T02:05:57;10.60;78.30
23633;DHT22;11993;48.748;9.166;2022-09-17T02:08:27;10.60;78.50
23633;DHT22;11993;48.748;9.166;2022-09-17T02:11:09;10.60;78.40
23633;DHT22;11993;48.748;9.166;2022-09-17T02:13:44;10.60;78.50
23633;DHT22;11993;48.748;9.166;2022-09-17T02:16:29;10.60;78.50
23633;DHT22;11993;48.748;9.166;2022-09-17T02:21:46;10.60;78.80
23633;DHT22;11993;48.748;9.166;2022-09-17T02:24:21;10.60;78.70
23633;DHT22;11993;48.748;9.166;2022-09-17T02:27:02;10.60;78.30
23633;DHT22;11993;48.748;9.166;2022-09-17T02:29:40;10.50;78.80
23633;DHT22;11993;48.748;9.166;2022-09-17T02:32:06;10.60;78.70
23633;DHT22;11993;48.748;9.166;2022-09-17T02:34:32;10.60;78.70
23633;DHT22;11993;48.748;9.166;2022-09-17T02:36:58;10.60;79.00
23633;DHT22;11993;48.748;9.166;2022-09-17T02:39:24;10.60;78.60
23633;DHT22;11993;48.748;9.166;2022-09-17T02:42:08;10.60;78.30
23633;DHT22;11993;48.748;9.166;2022-09-17T02:47:51;10.60;78.40
23633;DHT22;11993;48.748;9.166;2022-09-17T02:55:19;10.60;78.50
23633;DHT22;11993;48.748;9.166;2022-09-17T02:58:37;10.60;78.50
23633;DHT22;11993;48.748;9.166;2022-09-17T03:00:43;10.60;78.60
23633;DHT22;11993;48.748;9.166;2022-09-17T03:03:11;10.60;78.70
23633;DHT22;11993;48.748;9.166;2022-09-17T03:05:39;10.60;78.30
23633;DHT22;11993;48.748;9.166;2022-09-17T03:08:08;10.50;78.40
23633;DHT22;11993;48.748;9.166;2022-09-17T03:10:36;10.50;78.50
23633;DHT22;11993;48.748;9.166;2022-09-17T03:13:02;10.50;78.80
23633;DHT22;11993;48.748;9.166;2022-09-17T03:15:28;10.50;78.50
23633;DHT22;11993;48.748;9.166;2022-09-17T03:17:54;10.40;78.70
23633;DHT22;11993;48.748;9.166;2022-09-17T03:20:19;10.40;78.30
23633;DHT22;11993;48.748;9.166;2022-09-17T03:22:45;10.40;78.50
23633;DHT22;11993;48.748;9.166;2022-09-17T03:25:11;10.30;79.00
23633;DHT22;11993;48.748;9.166;2022-09-17T03:27:37;10.20;79.30
23633;DHT22;11993;48.748;9.166;2022-09-17T03:30:03;10.20;79.20
23633;DHT22;11993;48.748;9.166;2022-09-17T03:32:29;10.30;79.10
23633;DHT22;11993;48.748;9.166;2022-09-17T03:34:55;10.30;79.00
23633;DHT22;11993;48.748;9.166;2022-09-17T03:37:20;10.20;78.80
23633;DHT22;11993;48.748;9.166;2022-09-17T03:39:46;10.10;79.10
23633;DHT22;11993;48.748;9.166;2022-09-17T03:42:11;10.10;79.30
23633;DHT22;11993;48.748;9.166;2022-09-17T03:44:37;10.20;79.10
23633;DHT22;11993;48.748;9.166;2022-09-17T03:47:03;10.20;79.10
23633;DHT22;11993;48.748;9.166;2022-09-17T03:49:28;10.20;78.70
23633;DHT22;11993;48.748;9.166;2022-09-17T03:51:54;10.20;78.70
23633;DHT22;11993;48.748;9.166;2022-09-17T03:54:19;10.20;79.00
23633;DHT22;11993;48.748;9.166;2022-09-17T03:56:45;10.30;78.60
23633;DHT22;11993;48.748;9.166;2022-09-17T03:59:11;10.30;78.60
23633;DHT22;11993;48.748;9.166;2022-09-17T04:01:36;10.30;78.50
23633;DHT22;11993;48.748;9.166;2022-09-17T04:04:03;10.20;78.40
23633;DHT22;11993;48.748;9.166;2022-09-17T04:06:28;10.20;78.30
23633;DHT22;11993;48.748;9.166;2022-09-17T04:08:54;10.20;78.30
23633;DHT22;11993;48.748;9.166;2022-09-17T04:11:21;10.20;78.50
23633;DHT22;11993;48.748;9.166;2022-09-17T04:13:47;10.20;78.60
23633;DHT22;11993;48.748;9.166;2022-09-17T04:16:13;10.20;78.30
23633;DHT22;11993;48.748;9.166;2022-09-17T04:18:38;10.30;78.20
23633;DHT22;11993;48.748;9.166;2022-09-17T04:21:04;10.30;78.20
23633;DHT22;11993;48.748;9.166;2022-09-17T04:23:30;10.20;78.10
23633;DHT22;11993;48.748;9.166;2022-09-17T04:25:56;10.20;78.00
23633;DHT22;11993;48.748;9.166;2022-09-17T04:28:21;10.10;78.50
23633;DHT22;11993;48.748;9.166;2022-09-17T04:30:47;10.10;78.70
23633;DHT22;11993;48.748;9.166;2022-09-17T04:33:13;10.10;78.20
23633;DHT22;11993;48.748;9.166;2022-09-17T04:35:39;10.10;78.50
23633;DHT22;11993;48.748;9.166;2022-09-17T04:38:05;10.10;78.10
23633;DHT22;11993;48.748;9.166;2022-09-17T04:40:30;10.10;78.20
23633;DHT22;11993;48.748;9.166;2022-09-17T04:42:57;10.10;77.80
23633;DHT22;11993;48.748;9.166;2022-09-17T04:45:28;10.10;77.80
23633;DHT22;11993;48.748;9.166;2022-09-17T04:47:54;10.10;77.80
23633;DHT22;11993;48.748;9.166;2022-09-17T04:50:20;10.00;78.10
23633;DHT22;11993;48.748;9.166;2022-09-17T04:52:46;10.00;77.90
23633;DHT22;11993;48.748;9.166;2022-09-17T04:55:12;10.00;78.00
23633;DHT22;11993;48.748;9.166;2022-09-17T04:57:38;10.00;78.10
23633;DHT22;11993;48.748;9.166;2022-09-17T05:00:07;9.90;78.30
23633;DHT22;11993;48.748;9.166;2022-09-17T05:02:34;10.00;78.50
23633;DHT22;11993;48.748;9.166;2022-09-17T05:05:00;10.10;78.20
23633;DHT22;11993;48.748;9.166;2022-09-17T05:07:26;10.00;78.30
23633;DHT22;11993;48.748;9.166;2022-09-17T05:09:52;10.00;78.50
23633;DHT22;11993;48.748;9.166;2022-09-17T05:12:18;10.10;78.50
23633;DHT22;11993;48.748;9.166;2022-09-17T05:14:44;10.10;78.50
23633;DHT22;11993;48.748;9.166;2022-09-17T05:17:09;10.20;78.30
23633;DHT22;11993;48.748;9.166;2022-09-17T05:19:35;10.10;78.30
23633;DHT22;11993;48.748;9.166;2022-09-17T05:22:00;10.20;77.90
23633;DHT22;11993;48.748;9.166;2022-09-17T05:24:26;10.20;77.00
23633;DHT22;11993;48.748;9.166;2022-09-17T05:26:52;10.10;77.20
23633;DHT22;11993;48.748;9.166;2022-09-17T05:29:17;10.10;77.30
23633;DHT22;11993;48.748;9.166;2022-09-17T05:31:43;10.10;77.00
23633;DHT22;11993;48.748;9.166;2022-09-17T05:34:08;10.10;77.30
23633;DHT22;11993;48.748;9.166;2022-09-17T05:36:34;10.10;77.60
23633;DHT22;11993;48.748;9.166;2022-09-17T05:38:59;10.10;77.30
23633;DHT22;11993;48.748;9.166;2022-09-17T05:41:25;10.10;77.30
23633;DHT22;11993;48.748;9.166;2022-09-17T05:43:50;10.00;77.30
23633;DHT22;11993;48.748;9.166;2022-09-17T05:46:16;10.10;77.20
23633;DHT22;11993;48.748;9.166;2022-09-17T05:48:41;10.10;77.30
23633;DHT22;11993;48.748;9.166;2022-09-17T05:51:08;10.10;77.30
23633;DHT22;11993;48.748;9.166;2022-09-17T05:53:33;10.10;77.50
23633;DHT22;11993;48.748;9.166;2022-09-17T05:55:59;10.30;77.10
23633;DHT22;11993;48.748;9.166;2022-09-17T05:58:24;10.30;76.80
23633;DHT22;11993;48.748;9.166;2022-09-17T06:00:50;10.50;76.70
23633;DHT22;11993;48.748;9.166;2022-09-17T06:03:17;10.60;75.90
23633;DHT22;11993;48.748;9.166;2022-09-17T06:05:50;10.60;75.80
23633;DHT22;11993;48.748;9.166;2022-09-17T06:08:16;10.60;75.60
23633;DHT22;11993;48.748;9.166;2022-09-17T06:10:42;10.90;75.60
23633;DHT22;11993;48.748;9.166;2022-09-17T06:13:07;11.00;74.40
23633;DHT22;11993;48.748;9.166;2022-09-17T06:15:33;11.00;74.50
23633;DHT22;11993;48.748;9.166;2022-09-17T06:17:58;11.00;74.40
23633;DHT22;11993;48.748;9.166;2022-09-17T06:20:24;11.10;74.50
23633;DHT22;11993;48.748;9.166;2022-09-17T06:22:55;11.10;74.40
23633;DHT22;11993;48.748;9.166;2022-09-17T06:25:21;11.00;74.60
23633;DHT22;11993;48.748;9.166;2022-09-17T06:27:48;11.10;74.40
23633;DHT22;11993;48.748;9.166;2022-09-17T06:30:13;11.10;74.10
23633;DHT22;11993;48.748;9.166;2022-09-17T06:32:39;11.10;74.40
23633;DHT22;11993;48.748;9.166;2022-09-17T06:35:05;11.20;74.20
23633;DHT22;11993;48.748;9.166;2022-09-17T06:37:31;11.20;74.20
23633;DHT22;11993;48.748;9.166;2022-09-17T06:39:58;11.20;74.30
23633;DHT22;11993;48.748;9.166;2022-09-17T06:42:24;11.10;74.10
23633;DHT22;11993;48.748;9.166;2022-09-17T06:44:50;11.10;73.90
23633;DHT22;11993;48.748;9.166;2022-09-17T06:47:16;11.00;73.70
23633;DHT22;11993;48.748;9.166;2022-09-17T06:49:42;10.90;74.30
23633;DHT22;11993;48.748;9.166;2022-09-17T06:52:07;11.00;74.30
23633;DHT22;11993;48.748;9.166;2022-09-17T06:54:33;11.00;74.30
23633;DHT22;11993;48.748;9.166;2022-09-17T06:56:58;11.00;74.60
23633;DHT22;11993;48.748;9.166;2022-09-17T06:59:24;11.00;75.30
23633;DHT22;11993;48.748;9.166;2022-09-17T07:01:51;10.90;74.80
23633;DHT22;11993;48.748;9.166;2022-09-17T07:04:16;11.00;74.70
23633;DHT22;11993;48.748;9.166;2022-09-17T07:06:43;11.00;74.50
23633;DHT22;11993;48.748;9.166;2022-09-17T07:09:10;10.90;74.40
23633;DHT22;11993;48.748;9.166;2022-09-17T07:11:36;10.80;75.20
23633;DHT22;11993;48.748;9.166;2022-09-17T07:14:02;10.90;76.40
23633;DHT22;11993;48.748;9.166;2022-09-17T07:16:29;10.90;77.20
23633;DHT22;11993;48.748;9.166;2022-09-17T07:18:59;10.90;76.50
23633;DHT22;11993;48.748;9.166;2022-09-17T07:21:24;10.80;76.50
23633;DHT22;11993;48.748;9.166;2022-09-17T07:23:50;10.60;76.90
23633;DHT22;11993;48.748;9.166;2022-09-17T07:26:16;10.60;78.00
23633;DHT22;11993;48.748;9.166;2022-09-17T07:28:43;10.70;78.30
23633;DHT22;11993;48.748;9.166;2022-09-17T07:31:09;10.70;78.80
23633;DHT22;11993;48.748;9.166;2022-09-17T07:33:37;10.70;79.20
23633;DHT22;11993;48.748;9.166;2022-09-17T07:36:10;10.70;78.60
23633;DHT22;11993;48.748;9.166;2022-09-17T07:38:36;10.60;78.70
23633;DHT22;11993;48.748;9.166;2022-09-17T07:41:05;10.60;79.20
23633;DHT22;11993;48.748;9.166;2022-09-17T07:43:33;10.50;79.20
23633;DHT22;11993;48.748;9.166;2022-09-17T07:45:59;10.40;79.30
23633;DHT22;11993;48.748;9.166;2022-09-17T07:48:26;10.50;79.70
23633;DHT22;11993;48.748;9.166;2022-09-17T07:50:52;10.50;80.40
23633;DHT22;11993;48.748;9.166;2022-09-17T07:53:18;10.50;79.60
23633;DHT22;11993;48.748;9.166;2022-09-17T07:55:54;10.30;80.50
23633;DHT22;11993;48.748;9.166;2022-09-17T07:58:22;10.30;80.50
23633;DHT22;11993;48.748;9.166;2022-09-17T08:00:47;10.30;80.50
23633;DHT22;11993;48.748;9.166;2022-09-17T08:03:13;10.30;80.80
23633;DHT22;11993;48.748;9.166;2022-09-17T08:05:39;10.30;81.10
23633;DHT22;11993;48.748;9.166;2022-09-17T08:08:05;10.30;80.80
23633;DHT22;11993;48.748;9.166;2022-09-17T08:10:31;10.20;80.50
23633;DHT22;11993;48.748;9.166;2022-09-17T08:12:57;10.20;80.60
23633;DHT22;11993;48.748;9.166;2022-09-17T08:15:23;10.40;81.20
23633;DHT22;11993;48.748;9.166;2022-09-17T08:17:50;10.40;80.60
23633;DHT22;11993;48.748;9.166;2022-09-17T08:20:16;10.50;81.00
23633;DHT22;11993;48.748;9.166;2022-09-17T08:22:42;10.60;80.80
23633;DHT22;11993;48.748;9.166;2022-09-17T08:25:09;10.50;80.40
23633;DHT22;11993;48.748;9.166;2022-09-17T08:27:35;10.60;80.10
23633;DHT22;11993;48.748;9.166;2022-09-17T08:30:04;10.60;80.90
23633;DHT22;11993;48.748;9.166;2022-09-17T08:32:30;10.80;81.10
23633;DHT22;11993;48.748;9.166;2022-09-17T08:34:55;10.80;80.50
23633;DHT22;11993;48.748;9.166;2022-09-17T08:37:21;10.90;80.40
23633;DHT22;11993;48.748;9.166;2022-09-17T08:39:47;10.90;79.90
23633;DHT22;11993;48.748;9.166;2022-09-17T08:42:35;11.00;80.00
23633;DHT22;11993;48.748;9.166;2022-09-17T08:45:03;11.10;79.90
23633;DHT22;11993;48.748;9.166;2022-09-17T08:47:35;11.10;79.90
23633;DHT22;11993;48.748;9.166;2022-09-17T08:50:05;11.20;79.30
23633;DHT22;11993;48.748;9.166;2022-09-17T08:52:58;11.20;79.10
23633;DHT22;11993;48.748;9.166;2022-09-17T09:00:51;11.70;77.50
23633;DHT22;11993;48.748;9.166;2022-09-17T09:06:04;12.30;76.30
23633;DHT22;11993;48.748;9.166;2022-09-17T09:08:43;12.60;75.30
23633;DHT22;11993;48.748;9.166;2022-09-17T09:11:23;12.60;74.00
23633;DHT22;11993;48.748;9.166;2022-09-17T09:14:06;12.50;72.80
23633;DHT22;11993;48.748;9.166;2022-09-17T09:16:38;12.50;72.90
23633;DHT22;11993;48.748;9.166;2022-09-17T09:19:22;12.60;72.40
23633;DHT22;11993;48.748;9.166;2022-09-17T09:27:54;12.70;73.40
23633;DHT22;11993;48.748;9.166;2022-09-17T09:30:21;13.00;73.00
23633;DHT22;11993;48.748;9.166;2022-09-17T09:33:14;12.90;71.80
23633;DHT22;11993;48.748;9.166;2022-09-17T09:35:42;13.10;71.60
23633;DHT22;11993;48.748;9.166;2022-09-17T09:41:07;13.40;71.30
23633;DHT22;11993;48.748;9.166;2022-09-17T09:43:51;13.70;70.10
23633;DHT22;11993;48.748;9.166;2022-09-17T09:49:41;13.30;70.00
23633;DHT22;11993;48.748;9.166;2022-09-17T09:52:18;13.40;70.50
23633;DHT22;11993;48.748;9.166;2022-09-17T09:57:54;13.50;69.30
23633;DHT22;11993;48.748;9.166;2022-09-17T10:00:35;13.20;68.30
23633;DHT22;11993;48.748;9.166;2022-09-17T10:03:21;12.90;69.00
23633;DHT22;11993;48.748;9.166;2022-09-17T10:08:22;12.70;71.00
23633;DHT22;11993;48.748;9.166;2022-09-17T10:10:55;12.80;71.60
23633;DHT22;11993;48.748;9.166;2022-09-17T10:13:21;13.10;71.40
23633;DHT22;11993;48.748;9.166;2022-09-17T10:15:47;13.00;70.00
23633;DHT22;11993;48.748;9.166;2022-09-17T10:18:20;13.20;70.20
23633;DHT22;11993;48.748;9.166;2022-09-17T10:20:54;13.70;69.50
23633;DHT22;11993;48.748;9.166;2022-09-17T10:23:21;14.00;67.90
23633;DHT22;11993;48.748;9.166;2022-09-17T10:25:48;14.00;64.80
23633;DHT22;11993;48.748;9.166;2022-09-17T10:28:38;14.10;64.40
23633;DHT22;11993;48.748;9.166;2022-09-17T10:31:06;14.30;63.80
23633;DHT22;11993;48.748;9.166;2022-09-17T10:33:38;14.90;62.40
23633;DHT22;11993;48.748;9.166;2022-09-17T10:36:06;15.30;61.70
23633;DHT22;11993;48.748;9.166;2022-09-17T10:38:39;15.90;61.90
23633;DHT22;11993;48.748;9.166;2022-09-17T10:41:19;16.00;59.30
23633;DHT22;11993;48.748;9.166;2022-09-17T10:43:50;15.60;56.70
23633;DHT22;11993;48.748;9.166;2022-09-17T10:46:24;15.80;58.00
23633;DHT22;11993;48.748;9.166;2022-09-17T10:51:41;15.80;58.40
23633;DHT22;11993;48.748;9.166;2022-09-17T10:57:06;16.70;57.10
23633;DHT22;11993;48.748;9.166;2022-09-17T11:00:02;16.90;56.70
23633;DHT22;11993;48.748;9.166;2022-09-17T11:02:56;16.70;55.70
23633;DHT22;11993;48.748;9.166;2022-09-17T11:05:45;16.80;54.20
23633;DHT22;11993;48.748;9.166;2022-09-17T11:11:11;17.40;54.20
23633;DHT22;11993;48.748;9.166;2022-09-17T11:13:45;17.80;52.70
23633;DHT22;11993;48.748;9.166;2022-09-17T11:16:35;17.70;51.90
23633;DHT22;11993;48.748;9.166;2022-09-17T11:19:29;17.90;52.00
23633;DHT22;11993;48.748;9.166;2022-09-17T11:27:41;18.10;48.60
23633;DHT22;11993;48.748;9.166;2022-09-17T11:30:21;17.60;49.90
23633;DHT22;11993;48.748;9.166;2022-09-17T11:35:30;16.90;50.60
23633;DHT22;11993;48.748;9.166;2022-09-17T11:40:46;16.70;52.00
23633;DHT22;11993;48.748;9.166;2022-09-17T11:43:32;16.70;50.80
23633;DHT22;11993;48.748;9.166;2022-09-17T11:46:21;17.00;50.00
23633;DHT22;11993;48.748;9.166;2022-09-17T11:48:57;16.90;49.80
23633;DHT22;11993;48.748;9.166;2022-09-17T11:51:30;16.80;50.10
23633;DHT22;11993;48.748;9.166;2022-09-17T11:56:35;16.60;50.70
23633;DHT22;11993;48.748;9.166;2022-09-17T12:01:44;16.60;50.60
23633;DHT22;11993;48.748;9.166;2022-09-17T12:04:37;16.60;49.60
23633;DHT22;11993;48.748;9.166;2022-09-17T12:10:40;17.40;48.20
23633;DHT22;11993;48.748;9.166;2022-09-17T12:15:47;16.80;49.60
23633;DHT22;11993;48.748;9.166;2022-09-17T12:18:45;16.40;51.40
23633;DHT22;11993;48.748;9.166;2022-09-17T12:21:17;16.10;51.80
23633;DHT22;11993;48.748;9.166;2022-09-17T12:23:49;15.70;51.50
23633;DHT22;11993;48.748;9.166;2022-09-17T12:26:33;15.40;52.90
23633;DHT22;11993;48.748;9.166;2022-09-17T12:32:30;15.00;54.70
23633;DHT22;11993;48.748;9.166;2022-09-17T12:38:20;14.70;57.20
23633;DHT22;11993;48.748;9.166;2022-09-17T12:46:08;15.60;54.60
23633;DHT22;11993;48.748;9.166;2022-09-17T12:49:06;15.30;54.60
23633;DHT22;11993;48.748;9.166;2022-09-17T12:51:53;15.10;56.00
23633;DHT22;11993;48.748;9.166;2022-09-17T13:00:12;13.80;64.70
23633;DHT22;11993;48.748;9.166;2022-09-17T13:02:48;13.60;65.30
23633;DHT22;11993;48.748;9.166;2022-09-17T13:13:27;13.10;68.90
23633;DHT22;11993;48.748;9.166;2022-09-17T13:16:20;12.70;70.50
23633;DHT22;11993;48.748;9.166;2022-09-17T13:19:02;12.50;71.60
23633;DHT22;11993;48.748;9.166;2022-09-17T13:21:52;12.50;72.70
23633;DHT22;11993;48.748;9.166;2022-09-17T13:24:23;12.20;73.70
23633;DHT22;11993;48.748;9.166;2022-09-17T13:26:50;12.10;74.10
23633;DHT22;11993;48.748;9.166;2022-09-17T13:29:56;12.10;75.00
23633;DHT22;11993;48.748;9.166;2022-09-17T13:37:32;12.50;74.40
23633;DHT22;11993;48.748;9.166;2022-09-17T13:40:00;12.60;73.50
23633;DHT22;11993;48.748;9.166;2022-09-17T13:42:29;12.70;72.40
23633;DHT22;11993;48.748;9.166;2022-09-17T13:45:17;13.30;71.60
23633;DHT22;11993;48.748;9.166;2022-09-17T13:50:31;14.50;70.00
23633;DHT22;11993;48.748;9.166;2022-09-17T13:52:58;14.80;67.20
23633;DHT22;11993;48.748;9.166;2022-09-17T13:55:38;14.80;65.80
23633;DHT22;11993;48.748;9.166;2022-09-17T13:58:10;14.70;65.40
23633;DHT22;11993;48.748;9.166;2022-09-17T14:19:31;16.50;60.30
23633;DHT22;11993;48.748;9.166;2022-09-17T14:30:11;15.40;63.00
23633;DHT22;11993;48.748;9.166;2022-09-17T14:35:46;15.00;64.60
23633;DHT22;11993;48.748;9.166;2022-09-17T14:38:35;15.10;64.50
23633;DHT22;11993;48.748;9.166;2022-09-17T14:41:21;15.30;63.80
23633;DHT22;11993;48.748;9.166;2022-09-17T14:48:51;15.80;60.50
23633;DHT22;11993;48.748;9.166;2022-09-17T14:56:34;15.80;61.70
23633;DHT22;11993;48.748;9.166;2022-09-17T14:59:01;16.00;59.80
23633;DHT22;11993;48.748;9.166;2022-09-17T15:01:30;16.00;59.90
23633;DHT22;11993;48.748;9.166;2022-09-17T15:06:42;15.50;60.70
23633;DHT22;11993;48.748;9.166;2022-09-17T15:11:43;15.40;60.70
23633;DHT22;11993;48.748;9.166;2022-09-17T15:14:29;15.40;61.60
23633;DHT22;11993;48.748;9.166;2022-09-17T15:16:58;15.30;61.80
23633;DHT22;11993;48.748;9.166;2022-09-17T15:19:29;15.10;62.40
23633;DHT22;11993;48.748;9.166;2022-09-17T15:21:58;14.90;63.70
23633;DHT22;11993;48.748;9.166;2022-09-17T15:24:44;14.60;63.40
23633;DHT22;11993;48.748;9.166;2022-09-17T15:27:32;14.60;63.60
23633;DHT22;11993;48.748;9.166;2022-09-17T15:30:12;14.50;63.70
23633;DHT22;11993;48.748;9.166;2022-09-17T15:32:41;14.30;64.00
23633;DHT22;11993;48.748;9.166;2022-09-17T15:35:21;14.20;65.00
23633;DHT22;11993;48.748;9.166;2022-09-17T15:37:50;14.10;63.40
23633;DHT22;11993;48.748;9.166;2022-09-17T15:42:52;14.10;64.20
23633;DHT22;11993;48.748;9.166;2022-09-17T15:45:25;14.20;64.20
23633;DHT22;11993;48.748;9.166;2022-09-17T15:47:54;14.20;63.80
23633;DHT22;11993;48.748;9.166;2022-09-17T15:50:25;14.10;64.90
23633;DHT22;11993;48.748;9.166;2022-09-17T15:55:35;14.00;64.30
23633;DHT22;11993;48.748;9.166;2022-09-17T15:58:04;13.90;65.20
23633;DHT22;11993;48.748;9.166;2022-09-17T16:00:30;13.80;65.00
23633;DHT22;11993;48.748;9.166;2022-09-17T16:02:56;13.60;65.10
23633;DHT22;11993;48.748;9.166;2022-09-17T16:07:52;13.50;65.60
23633;DHT22;11993;48.748;9.166;2022-09-17T16:10:18;13.60;65.90
23633;DHT22;11993;48.748;9.166;2022-09-17T16:12:43;13.50;65.10
23633;DHT22;11993;48.748;9.166;2022-09-17T16:15:09;13.40;65.70
23633;DHT22;11993;48.748;9.166;2022-09-17T16:17:44;13.20;65.10
23633;DHT22;11993;48.748;9.166;2022-09-17T16:20:21;13.20;65.50
23633;DHT22;11993;48.748;9.166;2022-09-17T16:22:48;13.10;65.90
23633;DHT22;11993;48.748;9.166;2022-09-17T16:25:16;13.10;66.40
23633;DHT22;11993;48.748;9.166;2022-09-17T16:27:48;13.10;66.10
23633;DHT22;11993;48.748;9.166;2022-09-17T16:30:29;13.30;65.90
23633;DHT22;11993;48.748;9.166;2022-09-17T16:32:55;13.30;66.00
23633;DHT22;11993;48.748;9.166;2022-09-17T16:35:23;13.30;65.70
23633;DHT22;11993;48.748;9.166;2022-09-17T16:37:50;13.40;65.80
23633;DHT22;11993;48.748;9.166;2022-09-17T16:40:17;13.30;66.00
23633;DHT22;11993;48.748;9.166;2022-09-17T16:42:43;13.30;66.60
23633;DHT22;11993;48.748;9.166;2022-09-17T16:45:08;13.20;66.90
23633;DHT22;11993;48.748;9.166;2022-09-17T16:47:39;13.30;67.10
23633;DHT22;11993;48.748;9.166;2022-09-17T16:50:08;13.10;66.10
23633;DHT22;11993;48.748;9.166;2022-09-17T16:52:35;13.20;67.00
23633;DHT22;11993;48.748;9.166;2022-09-17T16:55:00;13.10;66.90
23633;DHT22;11993;48.748;9.166;2022-09-17T16:57:26;13.10;66.70
23633;DHT22;11993;48.748;9.166;2022-09-17T16:59:52;13.00;66.30
23633;DHT22;11993;48.748;9.166;2022-09-17T17:02:19;13.00;66.40
23633;DHT22;11993;48.748;9.166;2022-09-17T17:04:44;12.90;66.60
23633;DHT22;11993;48.748;9.166;2022-09-17T17:07:11;12.80;66.90
23633;DHT22;11993;48.748;9.166;2022-09-17T17:09:37;12.80;67.80
23633;DHT22;11993;48.748;9.166;2022-09-17T17:12:03;12.80;67.30
23633;DHT22;11993;48.748;9.166;2022-09-17T17:14:28;12.80;68.00
23633;DHT22;11993;48.748;9.166;2022-09-17T17:16:54;12.70;69.20
23633;DHT22;11993;48.748;9.166;2022-09-17T17:19:19;12.80;70.50
23633;DHT22;11993;48.748;9.166;2022-09-17T17:21:45;12.60;71.80
23633;DHT22;11993;48.748;9.166;2022-09-17T17:24:14;12.50;72.30
23633;DHT22;11993;48.748;9.166;2022-09-17T17:26:40;12.60;73.40
23633;DHT22;11993;48.748;9.166;2022-09-17T17:29:05;12.60;74.10
23633;DHT22;11993;48.748;9.166;2022-09-17T17:31:32;12.60;74.30
23633;DHT22;11993;48.748;9.166;2022-09-17T17:33:57;12.50;74.50
23633;DHT22;11993;48.748;9.166;2022-09-17T17:36:23;12.50;74.60
23633;DHT22;11993;48.748;9.166;2022-09-17T17:38:48;12.40;75.40
23633;DHT22;11993;48.748;9.166;2022-09-17T17:41:14;12.20;76.30
23633;DHT22;11993;48.748;9.166;2022-09-17T17:43:42;12.20;76.40
23633;DHT22;11993;48.748;9.166;2022-09-17T17:46:09;12.10;75.80
23633;DHT22;11993;48.748;9.166;2022-09-17T17:48:35;12.00;76.20
23633;DHT22;11993;48.748;9.166;2022-09-17T17:51:06;12.00;76.70
23633;DHT22;11993;48.748;9.166;2022-09-17T17:53:32;11.90;77.20
23633;DHT22;11993;48.748;9.166;2022-09-17T17:56:00;11.80;77.80
23633;DHT22;11993;48.748;9.166;2022-09-17T17:58:27;11.70;78.40
23633;DHT22;11993;48.748;9.166;2022-09-17T18:00:53;11.60;79.20
23633;DHT22;11993;48.748;9.166;2022-09-17T18:03:18;11.50;79.00
23633;DHT22;11993;48.748;9.166;2022-09-17T18:05:52;11.40;79.00
23633;DHT22;11993;48.748;9.166;2022-09-17T18:08:18;11.40;79.40
23633;DHT22;11993;48.748;9.166;2022-09-17T18:10:53;11.40;79.50
23633;DHT22;11993;48.748;9.166;2022-09-17T18:13:20;11.20;79.60
23633;DHT22;11993;48.748;9.166;2022-09-17T18:15:53;11.20;80.30
23633;DHT22;11993;48.748;9.166;2022-09-17T18:18:20;11.10;80.00
23633;DHT22;11993;48.748;9.166;2022-09-17T18:20:45;11.20;80.40
23633;DHT22;11993;48.748;9.166;2022-09-17T18:23:11;11.10;80.40
23633;DHT22;11993;48.748;9.166;2022-09-17T18:25:36;11.10;80.50
23633;DHT22;11993;48.748;9.166;2022-09-17T18:28:02;11.10;81.20
23633;DHT22;11993;48.748;9.166;2022-09-17T18:30:28;11.10;80.80
23633;DHT22;11993;48.748;9.166;2022-09-17T18:32:53;11.10;80.70
23633;DHT22;11993;48.748;9.166;2022-09-17T18:35:19;11.10;80.70
23633;DHT22;11993;48.748;9.166;2022-09-17T18:37:45;11.20;81.20
23633;DHT22;11993;48.748;9.166;2022-09-17T18:40:10;11.10;81.30
23633;DHT22;11993;48.748;9.166;2022-09-17T18:42:36;11.20;81.80
23633;DHT22;11993;48.748;9.166;2022-09-17T18:45:02;11.20;82.00
23633;DHT22;11993;48.748;9.166;2022-09-17T18:47:27;11.30;81.50
23633;DHT22;11993;48.748;9.166;2022-09-17T18:49:53;11.30;80.50
23633;DHT22;11993;48.748;9.166;2022-09-17T18:52:18;11.10;80.50